createdAt,value
2018-09-05T00:02:08.153Z,15.90
2018-09-05T00:04:36.569Z,15.90
2018-09-05T00:07:04.972Z,15.89
2018-09-05T00:09:33.385Z,15.87
2018-09-05T00:12:01.797Z,15.83
2018-09-05T00:14:30.238Z,15.80
2018-09-05T00:16:58.638Z,15.76
2018-09-05T00:19:27.082Z,15.74
2018-09-05T00:21:55.705Z,15.73
2018-09-05T00:24:24.139Z,15.74
2018-09-05T00:26:52.543Z,15.74
2018-09-05T00:29:20.978Z,15.75
2018-09-05T00:31:49.377Z,15.78
2018-09-05T00:34:17.793Z,15.80
2018-09-05T00:36:46.194Z,15.82
2018-09-05T00:39:14.630Z,15.82
2018-09-05T00:41:43.025Z,15.81
2018-09-05T00:44:11.445Z,15.81
2018-09-05T00:46:39.839Z,15.80
2018-09-05T00:49:08.266Z,15.81
2018-09-05T00:51:36.686Z,15.80
2018-09-05T00:54:05.311Z,15.82
2018-09-05T00:56:33.732Z,15.83
2018-09-05T00:59:02.154Z,15.84
2018-09-05T01:01:30.553Z,15.84
2018-09-05T01:03:59.000Z,15.84
2018-09-05T01:06:27.405Z,15.84
2018-09-05T01:08:55.843Z,15.83
2018-09-05T01:11:24.246Z,15.81
2018-09-05T01:13:52.673Z,15.79
2018-09-05T01:16:21.073Z,15.76
2018-09-05T01:18:49.515Z,15.73
2018-09-05T01:21:17.940Z,15.70
2018-09-05T01:23:46.379Z,15.68
2018-09-05T01:26:14.781Z,15.63
2018-09-05T01:28:43.224Z,15.62
2018-09-05T01:31:11.625Z,15.59
2018-09-05T01:33:40.054Z,15.58
2018-09-05T01:36:13.814Z,15.55
2018-09-05T01:38:42.970Z,15.53
2018-09-05T01:41:12.043Z,15.50
2018-09-05T01:43:41.358Z,15.46
2018-09-05T01:46:09.773Z,15.41
2018-09-05T01:48:38.738Z,15.38
2018-09-05T01:51:07.151Z,15.34
2018-09-05T01:53:35.827Z,15.32
2018-09-05T01:56:04.244Z,15.29
2018-09-05T01:58:32.708Z,15.27
2018-09-05T02:01:01.164Z,15.24
2018-09-05T02:03:29.646Z,15.21
2018-09-05T02:05:58.078Z,15.17
2018-09-05T02:08:26.495Z,15.13
2018-09-05T02:10:54.931Z,15.12
2018-09-05T02:13:23.328Z,15.11
2018-09-05T02:15:51.739Z,15.14
2018-09-05T02:18:20.163Z,15.12
2018-09-05T02:20:48.598Z,15.14
2018-09-05T02:23:16.975Z,15.14
2018-09-05T02:25:45.395Z,15.14
2018-09-05T02:28:13.777Z,15.15
2018-09-05T02:30:42.182Z,15.16
2018-09-05T02:33:10.569Z,15.16
2018-09-05T02:35:38.978Z,15.16
2018-09-05T02:38:07.367Z,15.17
2018-09-05T02:40:35.829Z,15.17
2018-09-05T02:43:04.205Z,15.17
2018-09-05T02:45:32.647Z,15.15
2018-09-05T02:48:01.043Z,15.16
2018-09-05T02:50:29.480Z,15.17
2018-09-05T02:52:57.891Z,15.17
2018-09-05T02:55:31.739Z,15.19
2018-09-05T02:58:09.683Z,15.19
2018-09-05T03:00:38.096Z,15.21
2018-09-05T03:03:06.765Z,15.21
2018-09-05T03:05:35.169Z,15.19
2018-09-05T03:08:03.558Z,15.18
2018-09-05T03:10:31.976Z,15.15
2018-09-05T03:13:00.367Z,15.13
2018-09-05T03:15:28.782Z,15.10
2018-09-05T03:17:57.163Z,15.07
2018-09-05T03:20:25.587Z,15.06
2018-09-05T03:22:53.969Z,15.06
2018-09-05T03:25:22.405Z,15.05
2018-09-05T03:27:50.773Z,15.05
2018-09-05T03:30:19.179Z,15.06
2018-09-05T03:32:47.633Z,15.07
2018-09-05T03:35:16.226Z,15.07
2018-09-05T03:37:44.601Z,15.04
2018-09-05T03:40:12.999Z,15.02
2018-09-05T03:42:41.378Z,14.98
2018-09-05T03:45:09.814Z,14.98
2018-09-05T03:47:38.213Z,14.96
2018-09-05T03:50:07.484Z,14.96
2018-09-05T03:52:35.983Z,14.94
2018-09-05T03:55:04.385Z,14.93
2018-09-05T03:57:32.775Z,14.93
2018-09-05T04:00:01.227Z,14.93
2018-09-05T04:02:29.623Z,14.93
2018-09-05T04:04:59.034Z,14.93
2018-09-05T04:07:27.935Z,14.94
2018-09-05T04:09:56.329Z,14.95
2018-09-05T04:12:24.729Z,14.95
2018-09-05T04:14:53.251Z,14.97
2018-09-05T04:17:21.846Z,14.95
2018-09-05T04:19:50.255Z,14.95
2018-09-05T04:22:18.672Z,14.95
2018-09-05T04:24:47.080Z,14.95
2018-09-05T04:27:15.670Z,14.93
2018-09-05T04:29:44.077Z,14.90
2018-09-05T04:32:12.551Z,14.85
2018-09-05T04:34:40.953Z,14.83
2018-09-05T04:37:09.371Z,14.81
2018-09-05T04:39:37.749Z,14.80
2018-09-05T04:42:06.154Z,14.80
2018-09-05T04:44:34.534Z,14.78
2018-09-05T04:47:02.940Z,14.78
2018-09-05T04:49:31.327Z,14.78
2018-09-05T04:51:59.726Z,14.80
2018-09-05T04:54:28.132Z,14.81
2018-09-05T04:56:56.544Z,14.81
2018-09-05T04:59:24.926Z,14.84
2018-09-05T05:01:53.330Z,14.87
2018-09-05T05:04:21.723Z,14.91
2018-09-05T05:06:50.214Z,14.96
2018-09-05T05:09:18.623Z,15.02
2018-09-05T05:11:47.040Z,15.06
2018-09-05T05:14:15.423Z,15.12
2018-09-05T05:16:43.852Z,15.20
2018-09-05T05:19:12.271Z,15.24
2018-09-05T05:21:40.688Z,15.29
2018-09-05T05:24:09.073Z,15.34
2018-09-05T05:26:37.484Z,15.41
2018-09-05T05:29:05.871Z,15.44
2018-09-05T05:31:34.287Z,15.50
2018-09-05T05:34:02.672Z,15.54
2018-09-05T05:36:31.087Z,15.59
2018-09-05T05:38:59.476Z,15.64
2018-09-05T05:41:28.023Z,15.67
2018-09-05T05:43:56.420Z,15.71
2018-09-05T05:46:24.866Z,15.76
2018-09-05T05:48:53.243Z,15.84
2018-09-05T05:51:22.951Z,15.88
2018-09-05T05:53:51.337Z,15.94
2018-09-05T05:56:19.740Z,16.00
2018-09-05T05:58:48.149Z,16.10
2018-09-05T06:01:16.678Z,16.24
2018-09-05T06:03:45.060Z,16.35
2018-09-05T06:06:13.534Z,16.46
2018-09-05T06:08:41.909Z,16.52
2018-09-05T06:11:10.290Z,16.59
2018-09-05T06:13:38.698Z,16.62
2018-09-05T06:16:07.089Z,16.67
2018-09-05T06:18:35.615Z,16.71
2018-09-05T06:21:04.085Z,16.75
2018-09-05T06:23:32.462Z,16.80
2018-09-05T06:26:00.843Z,16.83
2018-09-05T06:28:29.251Z,16.87
2018-09-05T06:30:57.758Z,16.91
2018-09-05T06:33:26.099Z,16.95
2018-09-05T06:35:54.491Z,17.00
2018-09-05T06:38:22.908Z,17.05
2018-09-05T06:40:51.278Z,17.15
2018-09-05T06:43:19.679Z,17.22
2018-09-05T06:45:48.057Z,17.30
2018-09-05T06:48:16.459Z,17.39
2018-09-05T06:50:44.874Z,17.45
2018-09-05T06:53:13.271Z,17.54
2018-09-05T06:55:41.655Z,17.61
2018-09-05T06:58:10.160Z,17.68
2018-09-05T07:00:38.526Z,17.77
2018-09-05T07:03:07.119Z,17.87
2018-09-05T07:05:35.516Z,17.98
2018-09-05T07:08:03.921Z,18.09
2018-09-05T07:10:32.299Z,18.21
2018-09-05T07:13:00.737Z,18.32
2018-09-05T07:15:29.123Z,18.46
2018-09-05T07:17:58.152Z,18.59
2018-09-05T07:20:26.572Z,18.72
2018-09-05T07:22:54.983Z,18.88
2018-09-05T07:25:23.367Z,19.06
2018-09-05T07:27:52.400Z,19.25
2018-09-05T07:30:20.801Z,19.48
2018-09-05T07:32:49.222Z,19.71
2018-09-05T07:35:17.607Z,19.91
2018-09-05T07:37:46.027Z,20.08
2018-09-05T07:40:14.401Z,20.25
2018-09-05T07:42:42.817Z,20.36
2018-09-05T07:45:11.211Z,20.44
2018-09-05T07:47:39.616Z,20.54
2018-09-05T07:50:08.295Z,20.56
2018-09-05T07:52:36.703Z,20.58
2018-09-05T07:55:05.091Z,20.56
2018-09-05T07:57:33.495Z,20.53
2018-09-05T08:00:02.042Z,20.49
2018-09-05T08:02:30.467Z,20.45
2018-09-05T08:04:58.851Z,20.40
2018-09-05T08:07:27.223Z,20.37
2018-09-05T08:09:55.652Z,20.33
2018-09-05T08:12:24.095Z,20.33
2018-09-05T08:14:52.493Z,20.40
2018-09-05T08:17:20.915Z,20.50
2018-09-05T08:19:49.333Z,20.62
2018-09-05T08:22:17.697Z,20.77
2018-09-05T08:24:46.347Z,20.91
2018-09-05T08:27:14.727Z,21.09
2018-09-05T08:29:43.127Z,21.25
2018-09-05T08:32:11.499Z,21.43
2018-09-05T08:34:40.065Z,21.57
2018-09-05T08:37:08.550Z,21.70
2018-09-05T08:39:36.802Z,21.84
2018-09-05T08:42:05.254Z,21.95
2018-09-05T08:44:33.714Z,22.05
2018-09-05T08:47:02.247Z,22.14
2018-09-05T08:49:30.631Z,22.23
2018-09-05T08:51:58.995Z,22.29
2018-09-05T08:54:27.385Z,22.27
2018-09-05T08:56:55.764Z,22.19
2018-09-05T08:59:24.228Z,22.17
2018-09-05T09:01:52.593Z,22.17
2018-09-05T09:04:20.995Z,22.10
2018-09-05T09:06:49.371Z,22.13
2018-09-05T09:09:17.786Z,22.18
2018-09-05T09:11:46.202Z,22.26
2018-09-05T09:14:14.570Z,22.38
2018-09-05T09:16:42.982Z,22.42
2018-09-05T09:19:11.419Z,22.52
2018-09-05T09:21:39.837Z,22.62
2018-09-05T09:24:08.882Z,22.75
2018-09-05T09:26:37.263Z,22.88
2018-09-05T09:29:05.776Z,22.92
2018-09-05T09:31:34.179Z,22.93
2018-09-05T09:34:02.591Z,22.93
2018-09-05T09:36:30.974Z,22.90
2018-09-05T09:38:59.371Z,22.88
2018-09-05T09:41:27.755Z,22.78
2018-09-05T09:43:56.154Z,22.69
2018-09-05T09:46:24.589Z,22.60
2018-09-05T09:48:52.975Z,22.50
2018-09-05T09:51:22.982Z,22.41
2018-09-05T09:53:52.193Z,22.36
2018-09-05T09:56:20.650Z,22.32
2018-09-05T09:58:49.029Z,22.31
2018-09-05T10:01:22.718Z,22.30
2018-09-05T10:03:56.452Z,22.32
2018-09-05T10:06:30.200Z,22.34
2018-09-05T10:10:04.305Z,22.37
2018-09-05T10:12:37.741Z,22.43
2018-09-05T10:15:13.658Z,22.48
2018-09-05T10:17:42.099Z,22.53
2018-09-05T10:20:10.518Z,22.58
2018-09-05T10:22:38.912Z,22.60
2018-09-05T10:25:07.319Z,22.61
2018-09-05T10:27:35.695Z,22.60
2018-09-05T10:30:04.095Z,22.59
2018-09-05T10:32:32.472Z,22.58
2018-09-05T10:35:00.864Z,22.59
2018-09-05T10:37:29.251Z,22.60
2018-09-05T10:39:57.651Z,22.60
2018-09-05T10:42:26.036Z,22.59
2018-09-05T10:44:54.462Z,22.60
2018-09-05T10:47:22.833Z,22.62
2018-09-05T10:49:51.251Z,22.70
2018-09-05T10:52:19.627Z,22.85
2018-09-05T10:54:48.020Z,23.02
2018-09-05T10:57:16.462Z,23.20
2018-09-05T10:59:44.831Z,23.41
2018-09-05T11:02:13.226Z,23.63
2018-09-05T11:04:41.594Z,23.85
2018-09-05T11:07:09.974Z,24.00
2018-09-05T11:09:38.461Z,24.12
2018-09-05T11:12:06.848Z,24.20
2018-09-05T11:14:35.218Z,24.25
2018-09-05T11:17:03.686Z,24.33
2018-09-05T11:19:32.084Z,24.42
2018-09-05T11:22:00.485Z,24.49
2018-09-05T11:24:28.870Z,24.58
2018-09-05T11:26:57.265Z,24.61
2018-09-05T11:29:25.637Z,24.61
2018-09-05T11:31:54.033Z,24.58
2018-09-05T11:34:22.419Z,24.53
2018-09-05T11:36:50.853Z,24.46
2018-09-05T11:39:19.242Z,24.38
2018-09-05T11:41:47.633Z,24.30
2018-09-05T11:44:16.008Z,24.24
2018-09-05T11:46:44.404Z,24.18
2018-09-05T11:49:12.799Z,24.12
2018-09-05T11:51:41.189Z,24.10
2018-09-05T11:54:10.230Z,24.11
2018-09-05T11:56:38.835Z,24.11
2018-09-05T11:59:07.499Z,24.10
2018-09-05T12:01:35.963Z,24.09
2018-09-05T12:04:04.346Z,24.06
2018-09-05T12:06:32.739Z,24.01
2018-09-05T12:09:01.110Z,23.96
2018-09-05T12:11:29.510Z,23.97
2018-09-05T12:13:57.894Z,24.00
2018-09-05T12:16:26.283Z,24.03
2018-09-05T12:18:54.650Z,24.11
2018-09-05T12:21:23.066Z,24.25
2018-09-05T12:23:51.425Z,24.42
2018-09-05T12:26:19.831Z,24.60
2018-09-05T12:28:48.207Z,24.75
2018-09-05T12:31:16.610Z,24.88
2018-09-05T12:33:44.976Z,24.99
2018-09-05T12:36:13.375Z,24.98
2018-09-05T12:38:41.755Z,24.94
2018-09-05T12:41:10.142Z,24.81
2018-09-05T12:43:38.515Z,24.66
2018-09-05T12:46:06.903Z,24.49
2018-09-05T12:48:35.330Z,24.33
2018-09-05T12:51:03.675Z,24.18
2018-09-05T12:53:32.070Z,24.07
2018-09-05T12:56:00.444Z,24.00
2018-09-05T12:58:28.855Z,23.96
2018-09-05T13:00:57.236Z,23.96
2018-09-05T13:03:25.633Z,24.04
2018-09-05T13:05:53.998Z,24.08
2018-09-05T13:08:22.403Z,24.15
2018-09-05T13:10:50.787Z,24.24
2018-09-05T13:13:19.187Z,24.28
2018-09-05T13:15:47.549Z,24.29
2018-09-05T13:18:15.942Z,24.31
2018-09-05T13:20:44.340Z,24.35
2018-09-05T13:23:12.739Z,24.41
2018-09-05T13:25:41.117Z,24.47
2018-09-05T13:28:09.649Z,24.53
2018-09-05T13:30:38.015Z,24.55
2018-09-05T13:33:06.481Z,24.56
2018-09-05T13:35:34.807Z,24.58
2018-09-05T13:38:03.208Z,24.59
2018-09-05T13:40:31.578Z,24.57
2018-09-05T13:42:59.987Z,24.56
2018-09-05T13:45:28.532Z,24.55
2018-09-05T13:47:56.936Z,24.51
2018-09-05T13:50:25.312Z,24.48
2018-09-05T13:52:53.740Z,24.47
2018-09-05T13:55:22.148Z,24.53
2018-09-05T13:57:50.539Z,24.60
2018-09-05T14:00:18.919Z,24.71
2018-09-05T14:02:47.943Z,24.82
2018-09-05T14:05:16.995Z,24.89
2018-09-05T14:07:45.436Z,24.95
2018-09-05T14:10:14.878Z,24.99
2018-09-05T14:12:43.277Z,25.05
2018-09-05T14:15:11.654Z,25.07
2018-09-05T14:17:40.051Z,25.06
2018-09-05T14:20:08.484Z,25.07
2018-09-05T14:22:36.902Z,25.09
2018-09-05T14:25:05.310Z,25.12
2018-09-05T14:27:33.924Z,25.09
2018-09-05T14:30:02.267Z,25.01
2018-09-05T14:32:30.677Z,24.92
2018-09-05T14:34:59.059Z,24.81
2018-09-05T14:37:27.452Z,24.68
2018-09-05T14:39:55.858Z,24.60
2018-09-05T14:42:24.251Z,24.57
2018-09-05T14:44:52.639Z,24.58
2018-09-05T14:47:21.055Z,24.60
2018-09-05T14:49:49.479Z,24.65
2018-09-05T14:52:17.856Z,24.68
2018-09-05T14:54:46.255Z,24.72
2018-09-05T14:57:14.631Z,24.76
2018-09-05T14:59:43.039Z,24.79
2018-09-05T15:02:11.426Z,24.78
2018-09-05T15:04:39.964Z,24.78
2018-09-05T15:07:08.356Z,24.76
2018-09-05T15:09:36.747Z,24.71
2018-09-05T15:12:05.123Z,24.63
2018-09-05T15:14:33.525Z,24.54
2018-09-05T15:17:02.013Z,24.43
2018-09-05T15:19:30.435Z,24.31
2018-09-05T15:21:58.815Z,24.20
2018-09-05T15:24:27.207Z,24.08
2018-09-05T15:26:55.662Z,23.98
2018-09-05T15:29:24.059Z,23.87
2018-09-05T15:31:52.447Z,23.83
2018-09-05T15:34:20.845Z,23.80
2018-09-05T15:36:49.219Z,23.78
2018-09-05T15:39:17.640Z,23.78
2018-09-05T15:41:46.049Z,23.77
2018-09-05T15:44:14.467Z,23.78
2018-09-05T15:46:42.842Z,23.77
2018-09-05T15:49:11.269Z,23.75
2018-09-05T15:51:39.657Z,23.75
2018-09-05T15:54:08.071Z,23.73
2018-09-05T15:56:36.461Z,23.69
2018-09-05T15:59:04.867Z,23.66
2018-09-05T16:01:33.254Z,23.61
2018-09-05T16:04:01.658Z,23.57
2018-09-05T16:06:30.036Z,23.50
2018-09-05T16:08:58.426Z,23.47
2018-09-05T16:11:26.798Z,23.44
2018-09-05T16:13:55.207Z,23.42
2018-09-05T16:16:24.163Z,23.37
2018-09-05T16:18:52.564Z,23.31
2018-09-05T16:21:20.955Z,23.24
2018-09-05T16:23:49.362Z,23.17
2018-09-05T16:26:17.764Z,23.09
2018-09-05T16:28:46.215Z,23.02
2018-09-05T16:31:14.599Z,22.98
2018-09-05T16:33:43.007Z,22.94
2018-09-05T16:36:11.432Z,22.89
2018-09-05T16:38:39.808Z,22.84
2018-09-05T16:41:08.190Z,22.79
2018-09-05T16:43:36.573Z,22.77
2018-09-05T16:46:04.960Z,22.81
2018-09-05T16:48:33.340Z,22.89
2018-09-05T16:51:01.745Z,22.98
2018-09-05T16:53:30.144Z,23.06
2018-09-05T16:55:58.538Z,23.12
2018-09-05T16:58:26.907Z,23.15
2018-09-05T17:00:55.306Z,23.18
2018-09-05T17:03:23.670Z,23.16
2018-09-05T17:05:52.071Z,23.13
2018-09-05T17:08:20.446Z,23.08
2018-09-05T17:10:48.833Z,23.03
2018-09-05T17:13:17.207Z,22.94
2018-09-05T17:15:45.619Z,22.84
2018-09-05T17:18:13.999Z,22.71
2018-09-05T17:20:42.419Z,22.54
2018-09-05T17:23:10.795Z,22.38
2018-09-05T17:25:39.191Z,22.21
2018-09-05T17:28:07.587Z,22.08
2018-09-05T17:30:35.988Z,21.94
2018-09-05T17:33:04.367Z,21.84
2018-09-05T17:35:32.786Z,21.74
2018-09-05T17:38:01.177Z,21.65
2018-09-05T17:40:29.575Z,21.56
2018-09-05T17:42:57.956Z,21.50
2018-09-05T17:45:26.447Z,21.39
2018-09-05T17:47:54.824Z,21.32
2018-09-05T17:50:23.223Z,21.27
2018-09-05T17:52:51.663Z,21.19
2018-09-05T17:55:20.075Z,21.09
2018-09-05T17:57:48.449Z,21.00
2018-09-05T18:00:16.842Z,20.92
2018-09-05T18:02:45.213Z,20.84
2018-09-05T18:05:13.652Z,20.77
2018-09-05T18:07:42.021Z,20.69
2018-09-05T18:10:10.419Z,20.62
2018-09-05T18:12:38.806Z,20.54
2018-09-05T18:15:07.255Z,20.47
2018-09-05T18:17:35.646Z,20.39
2018-09-05T18:20:04.075Z,20.32
2018-09-05T18:22:32.451Z,20.25
2018-09-05T18:25:00.854Z,20.20
2018-09-05T18:27:29.231Z,20.13
2018-09-05T18:29:57.639Z,20.08
2018-09-05T18:32:26.244Z,20.03
2018-09-05T18:34:54.643Z,19.96
2018-09-05T18:37:23.024Z,19.91
2018-09-05T18:39:51.428Z,19.84
2018-09-05T18:42:19.842Z,19.80
2018-09-05T18:44:48.246Z,19.74
2018-09-05T18:47:16.724Z,19.69
2018-09-05T18:49:45.093Z,19.61
2018-09-05T18:52:13.494Z,19.56
2018-09-05T18:54:41.866Z,19.51
2018-09-05T18:57:10.259Z,19.45
2018-09-05T18:59:38.626Z,19.38
2018-09-05T19:02:07.357Z,19.33
2018-09-05T19:04:36.324Z,19.28
2018-09-05T19:07:05.090Z,19.23
2018-09-05T19:09:33.468Z,19.19
2018-09-05T19:12:01.871Z,19.15
2018-09-05T19:14:30.259Z,19.11
2018-09-05T19:16:58.709Z,19.05
2018-09-05T19:19:27.167Z,19.03
2018-09-05T19:21:55.581Z,18.98
2018-09-05T19:24:23.959Z,18.93
2018-09-05T19:26:52.349Z,18.89
2018-09-05T19:29:20.727Z,18.83
2018-09-05T19:31:49.129Z,18.78
2018-09-05T19:34:17.513Z,18.74
2018-09-05T19:36:45.911Z,18.69
2018-09-05T19:39:14.286Z,18.66
2018-09-05T19:41:42.684Z,18.62
2018-09-05T19:44:11.062Z,18.59
2018-09-05T19:46:39.459Z,18.54
2018-09-05T19:49:07.893Z,18.51
2018-09-05T19:51:36.443Z,18.47
2018-09-05T19:54:04.814Z,18.43
2018-09-05T19:56:33.216Z,18.42
2018-09-05T19:59:01.599Z,18.37
2018-09-05T20:01:30.168Z,18.34
2018-09-05T20:03:58.547Z,18.31
2018-09-05T20:06:26.952Z,18.27
2018-09-05T20:08:55.482Z,18.25
2018-09-05T20:11:23.897Z,18.16
2018-09-05T20:13:52.312Z,18.17
2018-09-05T20:16:20.711Z,18.11
2018-09-05T20:18:49.112Z,18.06
2018-09-05T20:21:17.544Z,18.04
2018-09-05T20:23:45.923Z,18.00
2018-09-05T20:26:14.322Z,17.96
2018-09-05T20:28:42.700Z,17.91
2018-09-05T20:31:11.131Z,17.88
2018-09-05T20:33:39.506Z,17.84
2018-09-05T20:36:07.903Z,17.82
2018-09-05T20:38:36.285Z,17.81
2018-09-05T20:41:04.683Z,17.78
2018-09-05T20:43:33.134Z,17.76
2018-09-05T20:46:01.480Z,17.74
2018-09-05T20:48:29.885Z,17.71
2018-09-05T20:50:58.557Z,17.66
2018-09-05T20:53:26.962Z,17.64
2018-09-05T20:55:55.347Z,17.62
2018-09-05T20:58:23.745Z,17.63
2018-09-05T21:00:52.127Z,17.63
2018-09-05T21:03:20.530Z,17.60
2018-09-05T21:05:48.923Z,17.60
2018-09-05T21:08:17.334Z,17.58
2018-09-05T21:10:45.720Z,17.57
2018-09-05T21:13:14.118Z,17.54
2018-09-05T21:15:42.499Z,17.50
2018-09-05T21:18:10.981Z,17.46
2018-09-05T21:20:39.342Z,17.44
2018-09-05T21:23:07.751Z,17.42
2018-09-05T21:25:36.135Z,17.41
2018-09-05T21:28:04.643Z,17.40
2018-09-05T21:30:33.023Z,17.39
2018-09-05T21:33:01.433Z,17.38
2018-09-05T21:35:29.814Z,17.36
2018-09-05T21:37:58.209Z,17.20
2018-09-05T21:40:26.591Z,17.33
2018-09-05T21:42:54.994Z,17.30
2018-09-05T21:45:23.374Z,17.25
2018-09-05T21:47:51.783Z,17.19
2018-09-05T21:50:20.163Z,17.14
2018-09-05T21:52:48.630Z,17.08
2018-09-05T21:55:16.995Z,17.02
2018-09-05T21:57:45.415Z,16.97
2018-09-05T22:00:13.811Z,16.92
2018-09-05T22:02:42.206Z,16.88
2018-09-05T22:05:10.587Z,16.83
2018-09-05T22:07:38.989Z,16.78
2018-09-05T22:10:07.371Z,16.73
2018-09-05T22:12:36.045Z,16.68
2018-09-05T22:15:04.952Z,16.65
2018-09-05T22:17:33.345Z,16.62
2018-09-05T22:20:01.734Z,16.60
2018-09-05T22:22:30.142Z,16.57
2018-09-05T22:24:58.509Z,16.54
2018-09-05T22:27:26.897Z,16.51
2018-09-05T22:29:55.274Z,16.49
2018-09-05T22:32:23.681Z,16.45
2018-09-05T22:34:52.095Z,16.42
2018-09-05T22:37:20.500Z,16.37
2018-09-05T22:39:48.885Z,16.34
2018-09-05T22:42:17.254Z,16.29
2018-09-05T22:44:57.330Z,16.25
2018-09-05T22:47:36.995Z,16.20
2018-09-05T22:50:23.772Z,16.15
2018-09-05T22:53:08.593Z,16.11
2018-09-05T22:55:50.180Z,16.06
2018-09-05T22:59:31.867Z,16.02
2018-09-05T23:04:16.422Z,15.96
2018-09-05T23:06:57.988Z,15.87
2018-09-05T23:09:37.611Z,15.84
2018-09-05T23:13:17.087Z,15.80
2018-09-05T23:15:56.972Z,15.76
2018-09-05T23:18:36.751Z,15.71
2018-09-05T23:21:16.647Z,15.69
2018-09-05T23:23:57.147Z,15.68
2018-09-05T23:26:25.562Z,15.67
2018-09-05T23:28:54.074Z,15.67
2018-09-05T23:31:22.787Z,15.67
2018-09-05T23:33:51.175Z,15.67
2018-09-05T23:36:19.944Z,15.67
2018-09-05T23:38:48.343Z,15.68
2018-09-05T23:41:16.783Z,15.69
2018-09-05T23:43:45.167Z,15.69
2018-09-05T23:46:13.871Z,15.72
2018-09-05T23:48:42.255Z,15.75
2018-09-05T23:51:10.675Z,15.78
2018-09-05T23:53:39.067Z,15.81
2018-09-05T23:56:07.480Z,15.83
2018-09-05T23:58:35.870Z,15.84
